createdAt,value
2023-05-08T00:00:30.169Z,9.65
2023-05-08T00:01:33.045Z,9.18
2023-05-08T00:02:35.706Z,8.50
2023-05-08T00:03:38.702Z,9.40
2023-05-08T00:04:41.435Z,10.00
2023-05-08T00:05:44.092Z,10.45
2023-05-08T00:06:47.507Z,9.90
2023-05-08T00:07:52.227Z,8.80
2023-05-08T00:08:55.711Z,8.75
2023-05-08T00:09:58.334Z,10.10
2023-05-08T00:11:00.875Z,9.05
2023-05-08T00:12:03.694Z,9.60
2023-05-08T00:13:06.606Z,9.07
2023-05-08T00:14:09.192Z,9.70
2023-05-08T00:15:11.831Z,9.60
2023-05-08T00:16:14.555Z,9.18
2023-05-08T00:17:17.466Z,9.70
2023-05-08T00:18:19.980Z,10.02
2023-05-08T00:19:22.590Z,9.20
2023-05-08T00:20:25.116Z,9.05
2023-05-08T00:21:27.664Z,9.65
2023-05-08T00:22:30.241Z,10.18
2023-05-08T00:23:33.389Z,9.80
2023-05-08T00:24:35.955Z,9.13
2023-05-08T00:25:38.677Z,9.07
2023-05-08T00:26:42.135Z,9.00
2023-05-08T00:27:44.730Z,9.90
2023-05-08T00:28:47.667Z,9.20
2023-05-08T00:29:50.337Z,9.35
2023-05-08T00:30:53.153Z,9.73
2023-05-08T00:31:56.370Z,9.15
2023-05-08T00:32:59.049Z,8.60
2023-05-08T00:34:01.634Z,11.00
2023-05-08T00:35:04.448Z,8.70
2023-05-08T00:36:07.237Z,8.55
2023-05-08T00:37:09.797Z,9.45
2023-05-08T00:38:12.324Z,9.30
2023-05-08T00:39:14.949Z,8.65
2023-05-08T00:40:17.491Z,8.20
2023-05-08T00:41:20.099Z,9.05
2023-05-08T00:42:22.632Z,8.20
2023-05-08T00:43:28.168Z,7.80
2023-05-08T00:44:30.724Z,9.30
2023-05-08T00:45:37.283Z,9.23
2023-05-08T00:46:41.726Z,8.85
2023-05-08T00:47:44.570Z,8.43
2023-05-08T00:48:47.697Z,9.48
2023-05-08T00:49:50.708Z,9.05
2023-05-08T00:50:55.756Z,9.40
2023-05-08T00:51:58.397Z,9.20
2023-05-08T00:53:03.184Z,8.98
2023-05-08T00:54:05.984Z,9.20
2023-05-08T00:55:08.936Z,9.05
2023-05-08T00:56:14.399Z,9.85
2023-05-08T00:57:17.151Z,9.65
2023-05-08T00:58:23.045Z,9.40
2023-05-08T00:59:27.049Z,9.52
2023-05-08T01:00:29.637Z,9.68
2023-05-08T01:01:35.070Z,10.60
2023-05-08T01:02:37.876Z,10.45
2023-05-08T01:03:41.177Z,9.05
2023-05-08T01:04:45.975Z,9.55
2023-05-08T01:05:49.432Z,9.52
2023-05-08T01:06:52.309Z,8.75
2023-05-08T01:07:54.864Z,9.00
2023-05-08T01:08:57.726Z,8.65
2023-05-08T01:10:00.323Z,9.82
2023-05-08T01:11:34.714Z,10.15
2023-05-08T01:12:48.733Z,9.70
2023-05-08T01:14:01.054Z,9.10
2023-05-08T01:15:19.135Z,9.80
2023-05-08T01:16:41.654Z,10.18
2023-05-08T01:18:16.532Z,10.70
2023-05-08T01:20:01.554Z,9.95
2023-05-08T01:21:32.435Z,8.30
2023-05-08T01:22:58.936Z,9.38
2023-05-08T01:24:13.367Z,9.70
2023-05-08T01:25:34.057Z,9.65
2023-05-08T01:26:57.792Z,9.57
2023-05-08T01:28:33.556Z,9.68
2023-05-08T01:30:20.517Z,9.27
2023-05-08T01:31:50.537Z,8.82
2023-05-08T01:33:30.652Z,9.68
2023-05-08T01:34:35.540Z,9.80
2023-05-08T01:35:48.135Z,9.35
2023-05-08T01:37:16.580Z,9.80
2023-05-08T01:38:40.964Z,9.77
2023-05-08T01:40:08.457Z,9.90
2023-05-08T01:41:16.964Z,10.07
2023-05-08T01:42:51.961Z,9.85
2023-05-08T01:44:06.098Z,9.88
2023-05-08T01:45:18.939Z,9.88
2023-05-08T01:46:27.942Z,9.73
2023-05-08T01:47:33.881Z,10.82
2023-05-08T01:48:49.626Z,10.05
2023-05-08T01:50:22.403Z,10.00
2023-05-08T01:51:28.085Z,9.25
2023-05-08T01:52:47.319Z,10.90
2023-05-08T01:54:00.862Z,10.45
2023-05-08T01:55:11.670Z,10.70
2023-05-08T01:56:19.548Z,11.63
2023-05-08T01:57:27.160Z,10.70
2023-05-08T01:58:32.727Z,10.07
2023-05-08T01:59:37.287Z,10.15
2023-05-08T02:00:41.988Z,10.68
2023-05-08T02:01:46.334Z,11.02
2023-05-08T02:02:51.568Z,10.05
2023-05-08T02:03:56.166Z,10.30
2023-05-08T02:04:59.991Z,10.00
2023-05-08T02:06:03.572Z,10.77
2023-05-08T02:07:06.618Z,10.38
2023-05-08T02:08:12.122Z,10.45
2023-05-08T02:09:16.458Z,10.18
2023-05-08T02:10:22.261Z,9.93
2023-05-08T02:11:26.062Z,10.48
2023-05-08T02:12:30.714Z,10.10
2023-05-08T02:13:35.927Z,10.15
2023-05-08T02:14:40.357Z,11.20
2023-05-08T02:15:43.528Z,10.27
2023-05-08T02:16:47.962Z,11.10
2023-05-08T02:17:52.629Z,11.60
2023-05-08T02:18:57.493Z,9.75
2023-05-08T02:20:03.664Z,9.93
2023-05-08T02:21:07.889Z,10.00
2023-05-08T02:22:11.638Z,11.55
2023-05-08T02:23:16.340Z,10.55
2023-05-08T02:24:20.018Z,10.15
2023-05-08T02:25:23.780Z,10.38
2023-05-08T02:26:27.713Z,10.43
2023-05-08T02:27:31.459Z,11.73
2023-05-08T02:28:36.171Z,9.80
2023-05-08T02:29:39.279Z,10.98
2023-05-08T02:30:43.981Z,9.98
2023-05-08T02:31:48.383Z,11.18
2023-05-08T02:32:52.509Z,10.45
2023-05-08T02:33:58.437Z,10.82
2023-05-08T02:35:06.104Z,10.75
2023-05-08T02:36:11.495Z,10.20
2023-05-08T02:37:16.962Z,11.10
2023-05-08T02:38:22.312Z,11.10
2023-05-08T02:39:27.619Z,10.48
2023-05-08T02:40:32.277Z,10.05
2023-05-08T02:41:36.441Z,10.52
2023-05-08T02:42:39.268Z,10.70
2023-05-08T02:43:42.301Z,11.50
2023-05-08T02:44:44.941Z,11.07
2023-05-08T02:46:01.095Z,9.43
2023-05-08T02:47:27.944Z,9.48
2023-05-08T02:48:42.128Z,9.10
2023-05-08T02:50:00.603Z,9.02
2023-05-08T02:51:37.390Z,8.93
2023-05-08T02:52:49.243Z,10.85
2023-05-08T02:54:36.376Z,11.15
2023-05-08T02:55:58.087Z,10.35
2023-05-08T02:57:09.031Z,10.05
2023-05-08T02:58:24.474Z,11.73
2023-05-08T02:59:42.869Z,10.02
2023-05-08T03:00:59.564Z,9.82
2023-05-08T03:02:24.239Z,9.23
2023-05-08T03:03:41.050Z,9.38
2023-05-08T03:04:52.050Z,9.73
2023-05-08T03:05:58.341Z,10.57
2023-05-08T03:07:03.441Z,9.07
2023-05-08T03:08:16.196Z,8.07
2023-05-08T03:09:26.361Z,8.90
2023-05-08T03:10:34.787Z,10.18
2023-05-08T03:11:42.453Z,10.57
2023-05-08T03:12:49.193Z,10.70
2023-05-08T03:13:57.465Z,9.75
2023-05-08T03:15:34.813Z,9.82
2023-05-08T03:16:41.965Z,9.55
2023-05-08T03:17:46.446Z,9.90
2023-05-08T03:19:01.390Z,10.77
2023-05-08T03:20:08.440Z,11.75
2023-05-08T03:21:13.283Z,10.02
2023-05-08T03:22:16.653Z,9.30
2023-05-08T03:23:22.072Z,10.23
2023-05-08T03:24:28.483Z,8.32
2023-05-08T03:25:32.717Z,9.27
2023-05-08T03:26:36.485Z,8.80
2023-05-08T03:27:40.208Z,9.60
2023-05-08T03:28:42.765Z,8.85
2023-05-08T03:29:46.641Z,8.82
2023-05-08T03:30:51.257Z,9.15
2023-05-08T03:31:55.467Z,8.60
2023-05-08T03:32:59.592Z,9.35
2023-05-08T03:34:03.196Z,8.60
2023-05-08T03:35:07.232Z,9.75
2023-05-08T03:36:11.355Z,10.63
2023-05-08T03:37:13.989Z,11.13
2023-05-08T03:38:17.272Z,11.55
2023-05-08T03:39:20.038Z,12.18
2023-05-08T03:40:23.085Z,10.60
2023-05-08T03:41:26.332Z,13.07
2023-05-08T03:42:31.313Z,12.30
2023-05-08T03:43:36.883Z,10.52
2023-05-08T03:44:39.858Z,11.45
2023-05-08T03:45:42.445Z,13.43
2023-05-08T03:46:48.024Z,11.60
2023-05-08T03:47:53.896Z,11.07
2023-05-08T03:49:00.373Z,11.60
2023-05-08T03:50:03.767Z,10.90
2023-05-08T03:51:06.394Z,9.70
2023-05-08T03:52:15.384Z,11.55
2023-05-08T03:53:18.180Z,10.55
2023-05-08T03:54:25.300Z,10.95
2023-05-08T03:55:28.701Z,9.43
2023-05-08T03:56:31.450Z,8.60
2023-05-08T03:58:00.064Z,9.75
2023-05-08T03:59:24.658Z,9.57
2023-05-08T04:00:44.832Z,9.05
2023-05-08T04:01:55.711Z,9.15
2023-05-08T04:03:17.446Z,8.90
2023-05-08T04:04:34.628Z,8.85
2023-05-08T04:05:52.674Z,9.40
2023-05-08T04:07:06.428Z,8.75
2023-05-08T04:08:30.214Z,7.72
2023-05-08T04:10:09.038Z,8.32
2023-05-08T04:11:26.887Z,8.73
2023-05-08T04:12:59.010Z,7.40
2023-05-08T04:14:08.486Z,7.40
2023-05-08T04:15:22.802Z,7.93
2023-05-08T04:16:37.454Z,8.70
2023-05-08T04:17:50.192Z,8.90
2023-05-08T04:19:03.564Z,8.27
2023-05-08T04:20:09.358Z,8.45
2023-05-08T04:21:16.623Z,9.25
2023-05-08T04:22:21.542Z,9.38
2023-05-08T04:23:27.201Z,9.50
2023-05-08T04:24:34.880Z,8.70
2023-05-08T04:25:39.609Z,9.30
2023-05-08T04:26:43.699Z,8.18
2023-05-08T04:27:47.050Z,10.55
2023-05-08T04:28:50.097Z,10.23
2023-05-08T04:29:53.728Z,9.65
2023-05-08T04:30:57.795Z,10.20
2023-05-08T04:32:02.110Z,9.85
2023-05-08T04:33:06.236Z,9.10
2023-05-08T04:34:09.885Z,9.35
2023-05-08T04:35:13.756Z,10.23
2023-05-08T04:36:16.669Z,9.07
2023-05-08T04:37:26.812Z,10.63
2023-05-08T04:38:30.353Z,11.15
2023-05-08T04:39:33.010Z,9.20
2023-05-08T04:40:35.620Z,10.00
2023-05-08T04:41:38.798Z,9.40
2023-05-08T04:42:43.772Z,11.10
2023-05-08T04:43:46.317Z,10.60
2023-05-08T04:44:49.034Z,11.30
2023-05-08T04:45:51.653Z,11.00
2023-05-08T04:46:54.409Z,11.50
2023-05-08T04:47:57.105Z,9.90
2023-05-08T04:48:59.749Z,10.60
2023-05-08T04:50:05.735Z,10.80
2023-05-08T04:51:09.809Z,10.93
2023-05-08T04:52:12.573Z,9.40
2023-05-08T04:53:15.508Z,11.15
2023-05-08T04:54:18.160Z,10.98
2023-05-08T04:55:20.771Z,10.10
2023-05-08T04:56:23.703Z,10.15
2023-05-08T04:57:26.327Z,10.77
2023-05-08T04:58:29.202Z,10.48
2023-05-08T04:59:33.125Z,9.90
2023-05-08T05:00:35.941Z,11.15
2023-05-08T05:01:38.600Z,10.52
2023-05-08T05:02:41.513Z,10.20
2023-05-08T05:03:44.251Z,9.70
2023-05-08T05:04:47.029Z,9.27
2023-05-08T05:05:50.007Z,10.73
2023-05-08T05:06:52.524Z,10.52
2023-05-08T05:07:56.344Z,9.68
2023-05-08T05:08:59.007Z,9.38
2023-05-08T05:10:01.749Z,9.30
2023-05-08T05:11:06.779Z,9.70
2023-05-08T05:12:09.386Z,8.85
2023-05-08T05:13:12.031Z,9.15
2023-05-08T05:14:14.577Z,10.02
2023-05-08T05:15:17.305Z,9.93
2023-05-08T05:16:19.886Z,9.82
2023-05-08T05:17:22.548Z,10.05
2023-05-08T05:18:25.181Z,9.30
2023-05-08T05:19:29.516Z,8.45
2023-05-08T05:20:32.492Z,8.55
2023-05-08T05:21:35.157Z,8.52
2023-05-08T05:22:38.175Z,8.63
2023-05-08T05:23:41.467Z,8.18
2023-05-08T05:24:44.056Z,8.10
2023-05-08T05:25:46.719Z,8.45
2023-05-08T05:26:49.405Z,8.48
2023-05-08T05:27:52.079Z,7.63
2023-05-08T05:28:54.598Z,8.25
2023-05-08T05:29:57.979Z,8.32
2023-05-08T05:31:02.717Z,8.35
2023-05-08T05:32:07.262Z,8.82
2023-05-08T05:33:09.923Z,7.60
2023-05-08T05:34:12.639Z,8.02
2023-05-08T05:35:16.104Z,7.35
2023-05-08T05:36:18.695Z,7.10
2023-05-08T05:37:21.527Z,7.65
2023-05-08T05:38:24.197Z,8.00
2023-05-08T05:39:26.749Z,7.40
2023-05-08T05:40:29.588Z,6.93
2023-05-08T05:41:32.222Z,7.82
2023-05-08T05:42:34.853Z,8.00
2023-05-08T05:43:37.757Z,7.80
2023-05-08T05:44:40.431Z,8.48
2023-05-08T05:45:43.037Z,7.28
2023-05-08T05:46:45.734Z,7.35
2023-05-08T05:47:50.316Z,7.30
2023-05-08T05:48:54.912Z,7.03
2023-05-08T05:49:58.144Z,6.60
2023-05-08T05:51:02.733Z,7.00
2023-05-08T05:52:05.820Z,6.65
2023-05-08T05:53:08.549Z,6.50
2023-05-08T05:54:11.289Z,5.70
2023-05-08T05:55:14.462Z,6.57
2023-05-08T05:56:17.223Z,7.30
2023-05-08T05:57:19.861Z,7.03
2023-05-08T05:58:22.533Z,6.95
2023-05-08T05:59:25.110Z,5.65
2023-05-08T06:00:28.186Z,6.80
2023-05-08T06:01:32.297Z,6.75
2023-05-08T06:02:37.004Z,6.10
2023-05-08T06:03:40.042Z,5.97
2023-05-08T06:04:42.814Z,6.60
2023-05-08T06:05:47.728Z,5.57
2023-05-08T06:06:50.252Z,6.30
2023-05-08T06:07:52.882Z,5.90
2023-05-08T06:08:55.395Z,6.10
2023-05-08T06:09:58.756Z,6.47
2023-05-08T06:11:01.833Z,6.18
2023-05-08T06:12:04.549Z,6.85
2023-05-08T06:13:09.051Z,6.95
2023-05-08T06:14:11.720Z,5.53
2023-05-08T06:15:15.310Z,4.95
2023-05-08T06:16:23.161Z,5.93
2023-05-08T06:17:25.908Z,5.57
2023-05-08T06:18:28.648Z,6.10
2023-05-08T06:19:31.510Z,5.97
2023-05-08T06:20:34.110Z,6.10
2023-05-08T06:21:36.767Z,5.72
2023-05-08T06:22:40.231Z,5.70
2023-05-08T06:23:43.934Z,5.45
2023-05-08T06:24:47.144Z,6.28
2023-05-08T06:25:49.901Z,5.82
2023-05-08T06:26:52.439Z,4.85
2023-05-08T06:27:55.009Z,5.82
2023-05-08T06:28:57.597Z,5.95
2023-05-08T06:30:00.204Z,5.07
2023-05-08T06:31:02.964Z,4.53
2023-05-08T06:32:05.951Z,4.88
2023-05-08T06:33:09.776Z,5.38
2023-05-08T06:34:12.908Z,4.72
2023-05-08T06:35:18.527Z,4.78
2023-05-08T06:36:21.092Z,4.78
2023-05-08T06:37:23.867Z,5.00
2023-05-08T06:38:26.689Z,5.03
2023-05-08T06:39:29.259Z,4.55
2023-05-08T06:40:32.097Z,4.68
2023-05-08T06:41:34.712Z,4.40
2023-05-08T06:42:37.317Z,4.28
2023-05-08T06:43:40.125Z,5.38
2023-05-08T06:44:42.670Z,5.00
2023-05-08T06:45:45.797Z,4.13
2023-05-08T06:46:48.514Z,4.40
2023-05-08T06:47:51.130Z,4.38
2023-05-08T06:48:53.736Z,3.58
2023-05-08T06:49:56.341Z,4.05
2023-05-08T06:50:59.114Z,3.58
2023-05-08T06:52:01.660Z,4.60
2023-05-08T06:53:04.411Z,3.75
2023-05-08T06:54:08.330Z,3.35
2023-05-08T06:55:11.151Z,4.80
2023-05-08T06:56:14.706Z,4.07
2023-05-08T06:57:17.400Z,4.10
2023-05-08T06:58:19.947Z,3.80
2023-05-08T06:59:24.141Z,4.20
2023-05-08T07:00:27.102Z,4.00
2023-05-08T07:01:29.696Z,3.20
2023-05-08T07:02:32.739Z,3.40
2023-05-08T07:03:35.356Z,3.58
2023-05-08T07:04:39.101Z,3.50
2023-05-08T07:05:41.727Z,3.35
2023-05-08T07:06:44.303Z,3.33
2023-05-08T07:07:47.225Z,3.05
2023-05-08T07:08:50.107Z,2.83
2023-05-08T07:09:52.793Z,3.20
2023-05-08T07:10:55.407Z,2.70
2023-05-08T07:11:57.996Z,3.28
2023-05-08T07:13:00.625Z,2.88
2023-05-08T07:14:04.097Z,3.00
2023-05-08T07:15:17.713Z,2.60
2023-05-08T07:16:27.147Z,2.75
2023-05-08T07:17:30.881Z,2.35
2023-05-08T07:18:33.430Z,2.92
2023-05-08T07:19:36.895Z,2.80
2023-05-08T07:20:39.444Z,2.90
2023-05-08T07:21:42.303Z,2.40
2023-05-08T07:22:44.889Z,2.47
2023-05-08T07:23:49.099Z,2.20
2023-05-08T07:24:51.729Z,2.80
2023-05-08T07:25:54.640Z,2.63
2023-05-08T07:26:57.299Z,2.72
2023-05-08T07:28:01.618Z,3.00
2023-05-08T07:29:04.329Z,2.65
2023-05-08T07:30:08.817Z,2.60
2023-05-08T07:31:12.224Z,2.78
2023-05-08T07:32:15.502Z,2.80
2023-05-08T07:33:18.738Z,2.65
2023-05-08T07:34:21.999Z,2.80
2023-05-08T07:35:24.986Z,2.83
2023-05-08T07:36:27.613Z,3.00
2023-05-08T07:37:30.253Z,2.28
2023-05-08T07:38:33.044Z,2.60
2023-05-08T07:39:35.613Z,2.70
2023-05-08T07:40:38.305Z,2.95
2023-05-08T07:41:41.239Z,2.55
2023-05-08T07:42:45.064Z,2.65
2023-05-08T07:43:47.810Z,3.03
2023-05-08T07:44:54.966Z,2.40
2023-05-08T07:45:58.319Z,2.50
2023-05-08T07:47:00.938Z,3.13
2023-05-08T07:48:04.269Z,2.35
2023-05-08T07:49:07.196Z,3.08
2023-05-08T07:50:10.441Z,2.58
2023-05-08T07:51:14.101Z,2.75
2023-05-08T07:52:17.036Z,2.55
2023-05-08T07:53:19.765Z,2.50
2023-05-08T07:54:22.427Z,2.50
2023-05-08T07:55:25.124Z,3.08
2023-05-08T07:56:28.454Z,2.80
2023-05-08T07:57:37.951Z,3.05
2023-05-08T07:58:42.599Z,2.70
2023-05-08T07:59:45.138Z,2.65
2023-05-08T08:00:47.822Z,3.20
2023-05-08T08:01:50.703Z,2.90
2023-05-08T08:02:53.807Z,2.40
2023-05-08T08:03:56.800Z,2.72
2023-05-08T08:04:59.516Z,2.92
2023-05-08T08:06:02.047Z,3.25
2023-05-08T08:07:04.730Z,2.75
2023-05-08T08:08:07.364Z,2.75
2023-05-08T08:09:09.971Z,3.20
2023-05-08T08:10:12.648Z,3.15
2023-05-08T08:11:15.584Z,2.92
2023-05-08T08:12:21.534Z,2.90
2023-05-08T08:13:24.344Z,3.50
2023-05-08T08:14:27.573Z,2.40
2023-05-08T08:15:30.303Z,2.60
2023-05-08T08:16:32.938Z,2.55
2023-05-08T08:17:35.812Z,2.95
2023-05-08T08:18:38.487Z,2.60
2023-05-08T08:19:41.022Z,3.35
2023-05-08T08:20:44.211Z,2.50
2023-05-08T08:21:46.875Z,2.83
2023-05-08T08:22:49.457Z,2.83
2023-05-08T08:23:52.091Z,3.40
2023-05-08T08:24:57.219Z,2.78
2023-05-08T08:25:59.896Z,2.80
2023-05-08T08:27:02.604Z,2.28
2023-05-08T08:28:05.242Z,3.00
2023-05-08T08:29:08.113Z,2.90
2023-05-08T08:30:17.702Z,2.67
2023-05-08T08:31:21.307Z,2.50
2023-05-08T08:32:23.962Z,2.53
2023-05-08T08:33:29.207Z,2.80
2023-05-08T08:34:34.090Z,2.80
2023-05-08T08:35:38.145Z,2.92
2023-05-08T08:36:40.748Z,3.10
2023-05-08T08:37:43.676Z,2.50
2023-05-08T08:38:46.274Z,2.15
2023-05-08T08:39:49.425Z,2.75
2023-05-08T08:40:53.190Z,3.10
2023-05-08T08:41:56.194Z,2.65
2023-05-08T08:42:59.472Z,3.38
2023-05-08T08:44:02.134Z,2.85
2023-05-08T08:45:05.389Z,3.13
2023-05-08T08:46:15.358Z,3.28
2023-05-08T08:47:21.068Z,3.00
2023-05-08T08:48:28.620Z,3.13
2023-05-08T08:49:36.646Z,4.00
2023-05-08T08:50:46.487Z,2.80
2023-05-08T08:51:53.491Z,3.00
2023-05-08T08:53:01.482Z,2.85
2023-05-08T08:54:11.065Z,2.95
2023-05-08T08:55:17.259Z,3.03
2023-05-08T08:56:22.882Z,3.30
2023-05-08T08:57:28.967Z,3.30
2023-05-08T08:58:49.845Z,2.97
2023-05-08T08:59:55.195Z,3.83
2023-05-08T09:01:00.662Z,3.25
2023-05-08T09:02:11.768Z,3.28
2023-05-08T09:03:15.000Z,2.97
2023-05-08T09:04:18.293Z,3.40
2023-05-08T09:05:23.726Z,3.05
2023-05-08T09:06:27.836Z,2.60
2023-05-08T09:07:30.883Z,3.42
2023-05-08T09:08:33.720Z,3.00
2023-05-08T09:09:44.394Z,3.15
2023-05-08T09:10:47.515Z,2.90
2023-05-08T09:11:52.430Z,3.00
2023-05-08T09:12:55.066Z,3.03
2023-05-08T09:13:58.807Z,2.95
2023-05-08T09:15:01.554Z,3.10
2023-05-08T09:16:04.529Z,2.83
2023-05-08T09:17:07.612Z,3.90
2023-05-08T09:18:10.780Z,4.18
2023-05-08T09:19:16.119Z,3.08
2023-05-08T09:20:19.715Z,3.10
2023-05-08T09:21:23.325Z,2.90
2023-05-08T09:22:27.441Z,3.25
2023-05-08T09:23:29.976Z,2.90
2023-05-08T09:24:54.604Z,2.53
2023-05-08T09:25:57.483Z,3.08
2023-05-08T09:27:00.171Z,3.13
2023-05-08T09:28:21.475Z,3.22
2023-05-08T09:29:24.026Z,2.90
2023-05-08T09:30:26.797Z,2.50
2023-05-08T09:31:41.356Z,3.08
2023-05-08T09:32:47.580Z,3.70
2023-05-08T09:33:50.383Z,3.45
2023-05-08T09:34:53.797Z,3.13
2023-05-08T09:35:57.761Z,3.00
2023-05-08T09:37:06.118Z,2.90
2023-05-08T09:38:08.716Z,3.13
2023-05-08T09:39:12.783Z,2.83
2023-05-08T09:40:17.453Z,2.90
2023-05-08T09:41:21.895Z,3.50
2023-05-08T09:42:25.385Z,3.15
2023-05-08T09:43:28.260Z,3.88
2023-05-08T09:44:51.494Z,3.40
2023-05-08T09:45:54.102Z,3.45
2023-05-08T09:47:15.372Z,2.88
2023-05-08T09:48:17.993Z,3.13
2023-05-08T09:49:20.556Z,2.88
2023-05-08T09:50:23.997Z,3.60
2023-05-08T09:51:29.574Z,3.05
2023-05-08T09:52:33.487Z,3.05
2023-05-08T09:53:36.100Z,3.30
2023-05-08T09:54:38.889Z,3.30
2023-05-08T09:55:48.754Z,3.50
2023-05-08T09:56:51.456Z,3.35
2023-05-08T09:57:59.470Z,3.15
2023-05-08T09:59:24.733Z,3.05
2023-05-08T10:00:29.463Z,3.13
2023-05-08T10:01:35.963Z,2.83
2023-05-08T10:02:55.261Z,2.60
2023-05-08T10:03:58.384Z,3.03
2023-05-08T10:05:01.323Z,2.85
2023-05-08T10:06:14.997Z,2.70
2023-05-08T10:07:29.561Z,3.10
2023-05-08T10:08:32.195Z,3.20
2023-05-08T10:09:43.135Z,2.90
2023-05-08T10:10:53.446Z,3.47
2023-05-08T10:11:56.410Z,3.20
2023-05-08T10:12:59.148Z,2.67
2023-05-08T10:14:01.850Z,2.70
2023-05-08T10:15:05.107Z,3.13
2023-05-08T10:16:17.663Z,3.40
2023-05-08T10:17:56.029Z,3.00
2023-05-08T10:19:05.962Z,3.80
2023-05-08T10:20:09.673Z,3.78
2023-05-08T10:21:13.663Z,2.70
2023-05-08T10:22:17.099Z,3.47
2023-05-08T10:23:19.911Z,3.38
2023-05-08T10:24:33.419Z,3.20
2023-05-08T10:25:42.752Z,2.50
2023-05-08T10:27:18.387Z,3.85
2023-05-08T10:28:41.088Z,3.20
2023-05-08T10:29:54.124Z,3.20
2023-05-08T10:31:01.518Z,3.45
2023-05-08T10:32:09.846Z,3.10
2023-05-08T10:33:18.060Z,3.08
2023-05-08T10:34:24.123Z,2.80
2023-05-08T10:35:27.526Z,2.88
2023-05-08T10:36:31.775Z,2.53
2023-05-08T10:37:36.364Z,3.08
2023-05-08T10:38:41.741Z,3.00
2023-05-08T10:39:45.067Z,2.80
2023-05-08T10:40:50.894Z,2.50
2023-05-08T10:41:53.777Z,3.20
2023-05-08T10:42:57.872Z,2.97
2023-05-08T10:44:03.155Z,2.90
2023-05-08T10:45:08.915Z,3.10
2023-05-08T10:46:54.842Z,2.90
2023-05-08T10:48:05.245Z,2.78
2023-05-08T10:49:26.270Z,2.92
2023-05-08T10:50:56.722Z,2.90
2023-05-08T10:52:16.622Z,2.80
2023-05-08T10:53:54.216Z,2.70
2023-05-08T10:55:04.357Z,2.20
2023-05-08T10:56:07.334Z,2.58
2023-05-08T10:57:11.863Z,2.90
2023-05-08T10:58:29.585Z,2.90
2023-05-08T10:59:37.260Z,2.70
2023-05-08T11:00:59.735Z,3.00
2023-05-08T11:02:08.141Z,2.78
2023-05-08T11:03:23.645Z,2.38
2023-05-08T11:04:33.998Z,2.47
2023-05-08T11:05:48.330Z,3.17
2023-05-08T11:06:54.040Z,2.40
2023-05-08T11:07:58.777Z,2.20
2023-05-08T11:09:01.679Z,2.65
2023-05-08T11:10:13.473Z,3.35
2023-05-08T11:11:22.097Z,2.85
2023-05-08T11:12:28.027Z,2.65
2023-05-08T11:13:34.188Z,3.17
2023-05-08T11:14:42.525Z,2.97
2023-05-08T11:15:51.137Z,2.60
2023-05-08T11:16:53.677Z,2.67
2023-05-08T11:17:56.394Z,2.58
2023-05-08T11:19:19.851Z,2.83
2023-05-08T11:20:42.483Z,3.05
2023-05-08T11:22:27.017Z,3.47
2023-05-08T11:23:32.119Z,2.55
2023-05-08T11:24:36.703Z,2.63
2023-05-08T11:25:43.982Z,3.30
2023-05-08T11:26:49.590Z,2.60
2023-05-08T11:27:52.024Z,2.35
2023-05-08T11:28:54.738Z,2.58
2023-05-08T11:30:19.314Z,2.28
2023-05-08T11:31:22.239Z,2.55
2023-05-08T11:33:11.225Z,3.15
2023-05-08T11:34:46.002Z,2.95
2023-05-08T11:36:12.976Z,2.38
2023-05-08T11:37:24.437Z,2.92
2023-05-08T11:38:27.024Z,2.90
2023-05-08T11:39:29.626Z,2.88
2023-05-08T11:40:48.326Z,2.35
2023-05-08T11:41:50.916Z,2.63
2023-05-08T11:42:56.692Z,3.20
2023-05-08T11:44:22.828Z,2.60
2023-05-08T11:45:26.133Z,2.85
2023-05-08T11:46:56.272Z,2.50
2023-05-08T11:48:01.990Z,2.55
2023-05-08T11:49:04.944Z,2.10
2023-05-08T11:50:13.128Z,2.97
2023-05-08T11:51:20.128Z,2.53
2023-05-08T11:52:22.973Z,2.78
2023-05-08T11:53:25.752Z,2.20
2023-05-08T11:54:31.078Z,2.00
2023-05-08T11:55:33.674Z,2.60
2023-05-08T11:56:38.967Z,2.00
2023-05-08T11:57:41.538Z,2.15
2023-05-08T11:58:44.187Z,2.50
2023-05-08T11:59:51.285Z,2.40
2023-05-08T12:00:54.793Z,2.50
2023-05-08T12:02:07.569Z,3.28
2023-05-08T12:03:19.014Z,3.53
2023-05-08T12:04:23.580Z,2.95
2023-05-08T12:05:28.096Z,3.40
2023-05-08T12:06:34.005Z,2.50
2023-05-08T12:07:48.989Z,2.50
2023-05-08T12:08:51.551Z,2.40
2023-05-08T12:09:54.185Z,2.50
2023-05-08T12:10:57.982Z,2.53
2023-05-08T12:12:00.826Z,2.50
2023-05-08T12:13:03.727Z,2.70
2023-05-08T12:14:06.286Z,2.50
2023-05-08T12:15:10.397Z,2.97
2023-05-08T12:16:13.027Z,2.90
2023-05-08T12:17:19.053Z,2.33
2023-05-08T12:18:23.433Z,2.22
2023-05-08T12:19:26.344Z,2.55
2023-05-08T12:20:28.912Z,2.42
2023-05-08T12:21:31.585Z,2.55
2023-05-08T12:22:34.409Z,2.60
2023-05-08T12:23:38.057Z,2.90
2023-05-08T12:24:40.761Z,2.58
2023-05-08T12:25:43.649Z,2.92
2023-05-08T12:26:46.933Z,2.47
2023-05-08T12:27:49.531Z,2.28
2023-05-08T12:28:57.476Z,2.45
2023-05-08T12:30:00.095Z,3.10
2023-05-08T12:31:02.875Z,2.50
2023-05-08T12:32:05.755Z,2.55
2023-05-08T12:33:08.977Z,2.35
2023-05-08T12:34:12.656Z,2.15
2023-05-08T12:35:16.059Z,2.08
2023-05-08T12:36:18.973Z,1.80
2023-05-08T12:37:28.574Z,2.45
2023-05-08T12:38:31.362Z,2.40
2023-05-08T12:39:37.781Z,2.75
2023-05-08T12:40:45.301Z,2.35
2023-05-08T12:41:52.691Z,2.42
2023-05-08T12:42:55.251Z,2.97
2023-05-08T12:43:58.005Z,2.30
2023-05-08T12:45:00.691Z,2.35
2023-05-08T12:46:04.751Z,2.40
2023-05-08T12:47:07.453Z,2.55
2023-05-08T12:48:15.576Z,2.40
2023-05-08T12:49:26.926Z,2.55
2023-05-08T12:50:38.022Z,2.40
2023-05-08T12:51:46.296Z,3.20
2023-05-08T12:52:51.508Z,2.22
2023-05-08T12:53:54.625Z,2.85
2023-05-08T12:54:57.192Z,2.78
2023-05-08T12:56:04.887Z,2.55
2023-05-08T12:57:15.824Z,2.40
2023-05-08T12:58:18.594Z,2.42
2023-05-08T12:59:31.609Z,2.33
2023-05-08T13:00:45.501Z,2.20
2023-05-08T13:01:51.522Z,2.40
2023-05-08T13:02:55.767Z,2.35
2023-05-08T13:04:02.061Z,2.63
2023-05-08T13:05:05.974Z,1.90
2023-05-08T13:06:21.262Z,2.58
2023-05-08T13:07:24.020Z,2.20
2023-05-08T13:08:32.511Z,2.70
2023-05-08T13:09:35.385Z,2.78
2023-05-08T13:10:46.316Z,2.30
2023-05-08T13:11:49.323Z,1.80
2023-05-08T13:12:52.424Z,3.30
2023-05-08T13:13:55.119Z,2.55
2023-05-08T13:14:57.757Z,3.20
2023-05-08T13:16:05.195Z,2.50
2023-05-08T13:17:07.773Z,2.40
2023-05-08T13:18:11.440Z,2.72
2023-05-08T13:19:16.023Z,2.17
2023-05-08T13:20:18.658Z,2.00
2023-05-08T13:21:21.522Z,2.60
2023-05-08T13:22:26.736Z,2.88
2023-05-08T13:23:30.051Z,2.50
2023-05-08T13:24:32.648Z,2.70
2023-05-08T13:25:40.585Z,2.60
2023-05-08T13:26:43.499Z,2.50
2023-05-08T13:27:46.074Z,2.60
2023-05-08T13:28:48.653Z,2.75
2023-05-08T13:29:51.314Z,2.67
2023-05-08T13:30:53.909Z,2.38
2023-05-08T13:31:56.497Z,2.45
2023-05-08T13:32:59.244Z,2.85
2023-05-08T13:34:02.047Z,2.50
2023-05-08T13:35:05.114Z,2.70
2023-05-08T13:36:08.417Z,3.10
2023-05-08T13:37:11.186Z,2.10
2023-05-08T13:38:13.775Z,2.30
2023-05-08T13:39:16.477Z,2.47
2023-05-08T13:40:19.160Z,2.67
2023-05-08T13:41:22.162Z,2.20
2023-05-08T13:42:24.780Z,2.55
2023-05-08T13:43:27.317Z,2.88
2023-05-08T13:44:30.083Z,2.67
2023-05-08T13:45:33.180Z,2.70
2023-05-08T13:46:35.824Z,2.03
2023-05-08T13:47:38.430Z,2.50
2023-05-08T13:48:41.105Z,2.67
2023-05-08T13:49:44.859Z,2.20
2023-05-08T13:50:48.094Z,2.97
2023-05-08T13:51:56.497Z,2.88
2023-05-08T13:52:59.642Z,2.90
2023-05-08T13:54:02.246Z,2.13
2023-05-08T13:55:12.184Z,2.10
2023-05-08T13:56:15.072Z,2.45
2023-05-08T13:57:18.013Z,2.35
2023-05-08T13:58:20.696Z,2.47
2023-05-08T13:59:23.268Z,2.13
2023-05-08T14:00:27.928Z,2.20
2023-05-08T14:01:30.882Z,2.70
2023-05-08T14:02:33.602Z,2.13
2023-05-08T14:03:36.365Z,2.05
2023-05-08T14:04:39.252Z,2.10
2023-05-08T14:05:41.795Z,2.60
2023-05-08T14:06:44.374Z,1.95
2023-05-08T14:07:47.181Z,2.80
2023-05-08T14:08:51.451Z,2.67
2023-05-08T14:09:55.501Z,2.10
2023-05-08T14:10:58.374Z,1.90
2023-05-08T14:12:01.162Z,2.00
2023-05-08T14:13:04.017Z,2.88
2023-05-08T14:14:06.818Z,2.33
2023-05-08T14:15:11.804Z,2.80
2023-05-08T14:16:16.312Z,2.40
2023-05-08T14:17:19.047Z,2.78
2023-05-08T14:18:21.609Z,2.25
2023-05-08T14:19:24.378Z,2.30
2023-05-08T14:20:26.953Z,2.30
2023-05-08T14:21:29.472Z,2.50
2023-05-08T14:22:32.036Z,2.38
2023-05-08T14:23:36.059Z,2.70
2023-05-08T14:24:38.724Z,2.30
2023-05-08T14:25:41.267Z,1.90
2023-05-08T14:26:44.877Z,2.30
2023-05-08T14:27:47.582Z,2.05
2023-05-08T14:28:50.260Z,2.33
2023-05-08T14:29:53.688Z,2.22
2023-05-08T14:30:56.676Z,2.70
2023-05-08T14:31:59.353Z,1.92
2023-05-08T14:33:02.100Z,2.58
2023-05-08T14:34:04.795Z,2.30
2023-05-08T14:35:10.317Z,2.30
2023-05-08T14:36:12.861Z,2.17
2023-05-08T14:37:16.621Z,2.13
2023-05-08T14:38:19.172Z,2.60
2023-05-08T14:39:21.796Z,2.25